Time;durP1;ratioP1;P1;durP2;ratioP2;P2;SDS_P1;SDS_P2;PMS_P1;PMS_P2;Temp;Humidity;BMP_temperature;BMP_pressure;BME280_temperature;BME280_humidity;BME280_pressure;Samples;Min_cycle;Max_cycle;Signal;HPM_P1;HPM_P2
2022/12/12 00:01:26;;;;;;;36.17;21.23;;;-4.80;99.90;;;;;;5077088;28;20219;-80
2022/12/12 00:03:53;;;;;;;41.20;23.43;;;-4.80;99.90;;;;;;5068286;28;20689;-81
2022/12/12 00:06:21;;;;;;;38.40;23.17;;;-4.70;99.90;;;;;;5071053;28;20460;-80
2022/12/12 00:08:49;;;;;;;46.10;26.87;;;-4.80;99.90;;;;;;5063022;28;20209;-81
2022/12/12 00:11:16;;;;;;;48.60;28.03;;;-4.80;99.90;;;;;;5070066;28;20685;-81
2022/12/12 00:13:43;;;;;;;42.93;24.97;;;-5.10;99.90;;;;;;5076576;28;20297;-80
2022/12/12 00:16:11;;;;;;;42.40;23.37;;;-5.00;99.90;;;;;;5075542;28;20203;-81
2022/12/12 00:18:40;;;;;;;39.77;22.40;;;-4.80;99.90;;;;;;5076064;28;20220;-81
2022/12/12 00:21:11;;;;;;;42.57;24.67;;;-4.70;99.90;;;;;;5083757;28;20226;-81
2022/12/12 00:23:38;;;;;;;44.43;24.53;;;-4.70;99.90;;;;;;5075593;28;20655;-81
2022/12/12 00:26:08;;;;;;;42.37;24.50;;;-4.60;99.90;;;;;;5093377;28;20203;-79
2022/12/12 00:28:38;;;;;;;44.57;27.00;;;-4.60;99.90;;;;;;5096968;28;20226;-79
2022/12/12 00:31:05;;;;;;;45.03;26.60;;;-4.50;99.90;;;;;;5104327;28;20202;-78
2022/12/12 00:33:33;;;;;;;44.70;25.73;;;-4.50;99.90;;;;;;5090127;28;20292;-78
2022/12/12 00:36:02;;;;;;;44.93;24.77;;;-4.50;99.90;;;;;;5084968;28;20214;-78
2022/12/12 00:38:30;;;;;;;41.37;23.90;;;-4.50;99.90;;;;;;5071160;28;20210;-79
2022/12/12 00:40:59;;;;;;;43.37;24.70;;;-4.40;99.90;;;;;;5071319;28;20222;-79
2022/12/12 00:43:28;;;;;;;45.53;25.30;;;-4.40;99.90;;;;;;5079166;28;20262;-79
2022/12/12 00:45:59;;;;;;;45.20;24.57;;;-4.30;99.90;;;;;;5064482;28;20222;-79
2022/12/12 00:48:27;;;;;;;45.50;24.33;;;-4.30;99.90;;;;;;5064967;28;20215;-79
2022/12/12 00:50:55;;;;;;;40.40;23.40;;;-4.20;99.90;;;;;;5065334;28;20214;-79
2022/12/12 00:53:24;;;;;;;40.83;22.77;;;-4.10;99.90;;;;;;5064230;28;20227;-79
2022/12/12 00:55:55;;;;;;;45.23;23.30;;;-4.10;99.90;;;;;;5065353;28;20211;-79
2022/12/12 00:58:22;;;;;;;42.50;24.27;;;-4.10;99.90;;;;;;5083818;28;20258;-79
2022/12/12 01:00:49;;;;;;;43.10;22.73;;;-4.10;99.90;;;;;;5076459;28;20199;-78
2022/12/12 01:03:16;;;;;;;45.83;23.17;;;-4.20;99.90;;;;;;5069900;28;20286;-79
2022/12/12 01:05:43;;;;;;;37.97;20.87;;;-4.30;99.90;;;;;;5071213;28;20265;-79
2022/12/12 01:08:10;;;;;;;41.87;22.20;;;-4.30;99.90;;;;;;5063887;28;20229;-79
2022/12/12 01:10:38;;;;;;;41.40;22.10;;;-4.30;99.90;;;;;;5063263;28;20213;-79
2022/12/12 01:13:05;;;;;;;42.63;23.43;;;-4.30;99.90;;;;;;5073895;28;20198;-79
2022/12/12 01:15:32;;;;;;;41.40;22.57;;;-4.20;99.90;;;;;;5063289;28;20585;-79
2022/12/12 01:17:59;;;;;;;44.10;23.07;;;-4.30;99.90;;;;;;5071401;28;20290;-79
2022/12/12 01:20:27;;;;;;;46.27;24.47;;;-4.30;99.90;;;;;;5080163;28;20250;-78
2022/12/12 01:22:55;;;;;;;40.53;21.83;;;-4.40;99.90;;;;;;5083339;28;20300;-78
2022/12/12 01:25:22;;;;;;;40.53;22.23;;;-4.50;99.90;;;;;;5083398;28;20199;-78
2022/12/12 01:27:51;;;;;;;39.87;20.97;;;-4.40;99.90;;;;;;5083930;28;20285;-77
2022/12/12 01:30:21;;;;;;;43.07;22.47;;;-4.50;99.90;;;;;;5075992;28;20263;-79
2022/12/12 01:32:48;;;;;;;41.90;21.13;;;-4.50;99.90;;;;;;5065135;28;20301;-79
2022/12/12 01:35:14;;;;;;;38.60;19.87;;;-4.40;99.90;;;;;;5071313;28;20293;-79
2022/12/12 01:37:42;;;;;;;38.80;19.83;;;-4.50;99.90;;;;;;5085359;28;20309;-79
2022/12/12 01:40:14;;;;;;;37.03;19.27;;;-4.50;99.90;;;;;;5084919;28;20289;-79
2022/12/12 01:42:40;;;;;;;37.47;19.13;;;-4.40;99.90;;;;;;5083860;28;20269;-79
2022/12/12 01:45:48;;;;;;;38.93;19.20;;;-4.50;99.90;;;;;;5083714;28;20266;-79
2022/12/12 01:48:15;;;;;;;33.43;17.03;;;-4.60;99.90;;;;;;5084920;28;20311;-79
2022/12/12 01:50:43;;;;;;;34.40;17.57;;;-4.90;99.90;;;;;;5084137;28;20274;-80
2022/12/12 01:53:11;;;;;;;41.07;18.10;;;-5.00;99.90;;;;;;5084747;28;20270;-80
2022/12/12 01:55:37;;;;;;;34.30;17.50;;;-4.80;99.90;;;;;;5084350;28;20274;-79
2022/12/12 01:58:04;;;;;;;36.93;18.90;;;-4.70;99.90;;;;;;5085870;28;20227;-79
2022/12/12 02:00:33;;;;;;;34.80;17.57;;;-4.60;99.90;;;;;;5080852;28;20344;-79
2022/12/12 02:03:00;;;;;;;37.30;19.53;;;-4.60;99.90;;;;;;5064833;28;20286;-79
2022/12/12 02:05:30;;;;;;;33.00;17.53;;;-4.70;99.90;;;;;;5064331;28;20207;-78
2022/12/12 02:07:58;;;;;;;37.93;20.23;;;-4.60;99.90;;;;;;5082340;28;20222;-78
2022/12/12 02:10:25;;;;;;;38.27;19.43;;;-4.60;99.90;;;;;;5090443;28;20205;-80
2022/12/12 02:12:54;;;;;;;39.10;19.20;;;-4.80;99.90;;;;;;5082506;28;20194;-79
2022/12/12 02:15:21;;;;;;;37.90;20.00;;;-4.80;99.90;;;;;;5082326;28;20312;-78
2022/12/12 02:17:58;;;;;;;35.20;19.00;;;-4.70;99.90;;;;;;5069442;28;20245;-79
2022/12/12 02:20:43;;;;;;;37.47;19.77;;;-4.70;99.90;;;;;;5078744;28;20280;-79
2022/12/12 02:23:45;;;;;;;39.47;21.03;;;-4.60;99.90;;;;;;5079711;28;20290;-79
2022/12/12 02:26:50;;;;;;;39.67;21.30;;;-4.70;99.90;;;;;;5091501;28;20206;-78
2022/12/12 02:29:54;;;;;;;41.23;21.17;;;-4.80;99.90;;;;;;5058995;28;20269;-79
2022/12/12 02:32:26;;;;;;;36.50;19.63;;;-4.70;99.90;;;;;;5083931;28;20226;-79
2022/12/12 02:35:02;;;;;;;36.87;19.57;;;-4.90;99.90;;;;;;5067424;28;20231;-79
2022/12/12 02:37:36;;;;;;;38.80;20.50;;;-4.80;99.90;;;;;;5087384;28;20218;-79
2022/12/12 02:40:13;;;;;;;39.47;20.37;;;-4.70;99.90;;;;;;5069103;28;20238;-79
2022/12/12 02:42:44;;;;;;;41.10;21.60;;;-4.70;99.90;;;;;;5068909;28;20189;-78
2022/12/12 02:45:16;;;;;;;40.07;20.90;;;-4.70;99.90;;;;;;5087245;28;20213;-77
2022/12/12 02:47:50;;;;;;;37.67;20.00;;;-4.70;99.90;;;;;;5085939;28;20226;-79
2022/12/12 02:50:22;;;;;;;35.77;19.70;;;-5.00;99.90;;;;;;5080095;28;20210;-79
2022/12/12 02:52:49;;;;;;;37.23;19.90;;;-5.30;99.90;;;;;;5091090;28;20238;-79
2022/12/12 02:55:16;;;;;;;37.00;19.93;;;-5.20;99.90;;;;;;5083188;28;20226;-78
2022/12/12 02:57:43;;;;;;;39.00;20.60;;;-5.10;99.90;;;;;;5106487;28;20231;-79
2022/12/12 03:00:12;;;;;;;41.77;20.50;;;-4.90;99.90;;;;;;5096892;28;20222;-78
2022/12/12 03:08:48;;;;;;;38.93;20.43;;;-4.80;99.90;;;;;;5069651;28;20298;-79
2022/12/12 03:11:25;;;;;;;36.93;20.00;;;-4.80;99.90;;;;;;5068695;28;20282;-79
2022/12/12 03:13:56;;;;;;;38.97;20.77;;;-4.90;99.90;;;;;;5066792;28;20249;-79
2022/12/12 03:16:28;;;;;;;40.77;20.27;;;-4.90;99.90;;;;;;5067751;28;20283;-78
2022/12/12 03:19:01;;;;;;;37.90;19.60;;;-4.90;99.90;;;;;;5076682;28;20234;-78
2022/12/12 03:21:36;;;;;;;37.13;19.87;;;-4.90;99.90;;;;;;5073826;28;20262;-79
2022/12/12 03:24:09;;;;;;;41.43;20.23;;;-4.80;99.90;;;;;;5073907;28;20709;-79
2022/12/12 03:26:43;;;;;;;41.67;21.40;;;-4.80;99.90;;;;;;5084908;28;20218;-78
2022/12/12 03:29:14;;;;;;;40.97;20.87;;;-4.80;99.90;;;;;;5071695;28;20205;-78
2022/12/12 03:31:46;;;;;;;40.23;20.87;;;-4.80;99.90;;;;;;5066724;28;20602;-78
2022/12/12 03:34:19;;;;;;;36.73;19.83;;;-4.70;99.90;;;;;;5080458;28;20276;-78
2022/12/12 03:36:51;;;;;;;38.33;19.90;;;-4.70;99.90;;;;;;5068181;28;20790;-78
2022/12/12 03:39:23;;;;;;;39.10;20.00;;;-4.80;99.90;;;;;;5065839;28;20282;-78
2022/12/12 03:41:54;;;;;;;41.00;21.17;;;-4.70;99.90;;;;;;5068139;28;20640;-80
2022/12/12 03:44:26;;;;;;;39.40;20.03;;;-5.00;99.90;;;;;;5073757;28;20250;-79
2022/12/12 03:46:56;;;;;;;34.87;19.67;;;-5.20;99.90;;;;;;5085963;28;20222;-78
2022/12/12 03:49:29;;;;;;;38.20;19.37;;;-5.20;99.90;;;;;;5085945;28;20261;-78
2022/12/12 03:52:01;;;;;;;36.23;19.63;;;-5.30;99.90;;;;;;5086238;28;20206;-79
2022/12/12 03:54:33;;;;;;;38.00;19.53;;;-4.80;99.90;;;;;;5086136;28;20313;-79
2022/12/12 03:57:04;;;;;;;39.83;20.60;;;-4.90;99.90;;;;;;5086255;28;20232;-79
2022/12/12 03:59:34;;;;;;;37.50;20.07;;;-4.90;99.90;;;;;;5083235;28;20190;-78
2022/12/12 04:02:10;;;;;;;34.77;18.53;;;-5.10;99.90;;;;;;5064098;28;20294;-78
2022/12/12 04:04:44;;;;;;;37.00;19.43;;;-5.30;99.90;;;;;;5064943;28;20211;-78
2022/12/12 04:07:19;;;;;;;38.83;19.47;;;-5.30;99.90;;;;;;5065477;28;20695;-78
2022/12/12 04:15:48;;;;;;;34.60;18.50;;;-5.60;99.90;;;;;;5065876;28;20279;-79
2022/12/12 04:18:24;;;;;;;37.03;18.80;;;-5.10;99.90;;;;;;5065467;28;20576;-78
2022/12/12 04:23:55;;;;;;;37.00;18.53;;;-5.00;99.90;;;;;;5065817;28;20206;-79
2022/12/12 04:26:41;;;;;;;36.57;18.87;;;-5.00;99.90;;;;;;5065424;28;20313;-79
2022/12/12 04:29:24;;;;;;;38.07;19.17;;;-5.00;99.90;;;;;;5067307;28;20203;-78
2022/12/12 04:31:55;;;;;;;38.50;19.97;;;-4.90;99.90;;;;;;5077192;28;20233;-77
2022/12/12 04:34:28;;;;;;;39.80;19.77;;;-4.90;99.90;;;;;;5064403;28;20290;-79
2022/12/12 04:36:56;;;;;;;40.50;20.00;;;-4.90;99.90;;;;;;5064591;28;20229;-78
2022/12/12 04:39:24;;;;;;;36.67;19.43;;;-5.00;99.90;;;;;;5065944;28;20369;-79
2022/12/12 04:41:53;;;;;;;38.97;18.83;;;-5.00;99.90;;;;;;5065055;28;20230;-78
2022/12/12 04:44:22;;;;;;;40.77;19.67;;;-5.10;99.90;;;;;;5065319;28;20263;-78
2022/12/12 04:46:52;;;;;;;35.90;18.37;;;-5.00;99.90;;;;;;5079569;28;20233;-78
2022/12/12 04:49:22;;;;;;;36.53;18.73;;;-5.00;99.90;;;;;;5085153;28;20216;-79
2022/12/12 04:51:54;;;;;;;38.27;19.57;;;-5.00;99.90;;;;;;5084785;28;20225;-78
2022/12/12 04:54:29;;;;;;;41.33;20.23;;;-5.00;99.90;;;;;;5084731;28;20285;-79
2022/12/12 04:57:00;;;;;;;41.07;19.87;;;-4.90;99.90;;;;;;5085688;28;20236;-78
2022/12/12 04:59:27;;;;;;;39.60;20.27;;;-5.00;99.90;;;;;;5066696;28;20202;-79
2022/12/12 05:01:59;;;;;;;40.37;21.07;;;-4.90;99.90;;;;;;5064266;28;20218;-78
2022/12/12 05:04:33;;;;;;;38.50;19.27;;;-5.00;99.90;;;;;;5065430;28;20710;-79
2022/12/12 05:07:06;;;;;;;40.53;19.00;;;-5.10;99.90;;;;;;5064818;28;20782;-78
2022/12/12 05:09:35;;;;;;;37.63;18.97;;;-5.30;99.90;;;;;;5065169;28;20198;-79
2022/12/12 05:12:02;;;;;;;40.13;20.87;;;-5.30;99.90;;;;;;5064868;28;20635;-78
2022/12/12 05:14:30;;;;;;;41.93;20.17;;;-5.30;99.90;;;;;;5066646;28;20460;-78
2022/12/12 05:17:02;;;;;;;37.73;18.70;;;-5.30;99.90;;;;;;5068232;28;20290;-78
2022/12/12 05:19:29;;;;;;;36.10;17.93;;;-5.40;99.90;;;;;;5067593;28;20293;-77
2022/12/12 05:21:55;;;;;;;38.37;18.87;;;-5.70;99.90;;;;;;5073131;28;20289;-79
2022/12/12 05:24:22;;;;;;;36.97;18.90;;;-5.90;99.90;;;;;;5087645;28;20208;-79
2022/12/12 05:26:50;;;;;;;37.10;18.50;;;-6.00;99.90;;;;;;5083768;28;20718;-79
2022/12/12 05:29:17;;;;;;;37.10;18.20;;;-5.90;99.90;;;;;;5082113;28;20296;-78
2022/12/12 05:31:44;;;;;;;35.50;18.63;;;-5.50;99.90;;;;;;5065471;28;20293;-78
2022/12/12 05:34:11;;;;;;;37.73;19.20;;;-5.40;99.90;;;;;;5067237;28;20266;-79
2022/12/12 05:36:37;;;;;;;37.97;18.80;;;-5.30;99.90;;;;;;5067119;28;20500;-79
2022/12/12 05:39:04;;;;;;;40.17;19.93;;;-5.00;99.90;;;;;;5066148;28;20693;-78
2022/12/12 05:41:31;;;;;;;36.73;18.23;;;-5.20;99.90;;;;;;5065919;28;20276;-78
2022/12/12 05:43:59;;;;;;;36.20;19.07;;;-5.30;99.90;;;;;;5086382;28;20312;-79
2022/12/12 05:46:26;;;;;;;41.30;20.03;;;-5.40;99.90;;;;;;5085183;28;20228;-78
2022/12/12 05:48:52;;;;;;;36.57;19.00;;;-5.40;99.90;;;;;;5086004;28;20293;-78
2022/12/12 05:51:20;;;;;;;41.23;19.57;;;-5.50;99.90;;;;;;5086436;28;20245;-78
2022/12/12 05:53:47;;;;;;;38.90;19.57;;;-5.40;99.90;;;;;;5069316;28;20266;-79
2022/12/12 05:56:14;;;;;;;36.30;19.00;;;-5.50;99.90;;;;;;5066346;28;20290;-79
2022/12/12 05:58:42;;;;;;;41.27;20.07;;;-5.50;99.90;;;;;;5081574;28;20206;-79
2022/12/12 06:01:10;;;;;;;38.77;19.07;;;-5.50;99.90;;;;;;5086650;28;20313;-78
2022/12/12 06:03:37;;;;;;;38.43;18.93;;;-5.50;99.90;;;;;;5086196;28;20278;-78
2022/12/12 06:06:05;;;;;;;37.83;19.10;;;-5.50;99.90;;;;;;5079485;28;20258;-79
2022/12/12 06:08:31;;;;;;;37.43;19.30;;;-5.50;99.90;;;;;;5095781;28;20248;-78
2022/12/12 06:10:58;;;;;;;38.37;18.43;;;-5.70;99.90;;;;;;5092123;28;20263;-79
2022/12/12 06:13:25;;;;;;;37.60;18.43;;;-5.80;99.90;;;;;;5088980;28;20198;-79
2022/12/12 06:15:52;;;;;;;34.90;18.37;;;-5.90;99.90;;;;;;5096343;28;20289;-79
2022/12/12 06:18:20;;;;;;;35.07;17.63;;;-6.10;99.90;;;;;;5089691;28;20224;-78
2022/12/12 06:20:47;;;;;;;36.97;17.97;;;-6.10;99.90;;;;;;5090214;28;20309;-79
2022/12/12 06:23:13;;;;;;;38.10;18.93;;;-6.00;99.90;;;;;;5071878;28;20309;-79
2022/12/12 06:25:40;;;;;;;36.27;17.23;;;-6.00;99.90;;;;;;5068905;28;20302;-78
2022/12/12 06:28:07;;;;;;;43.60;18.07;;;-5.80;99.90;;;;;;5069345;28;20231;-79
2022/12/12 06:30:34;;;;;;;36.03;19.03;;;-5.80;99.90;;;;;;5068548;28;20270;-78
2022/12/12 06:33:01;;;;;;;37.70;18.57;;;-5.80;99.90;;;;;;5074439;28;20269;-79
2022/12/12 06:35:29;;;;;;;40.47;19.50;;;-5.70;99.90;;;;;;5074524;28;20290;-78
2022/12/12 06:37:56;;;;;;;40.90;19.27;;;-5.60;99.90;;;;;;5067160;28;20229;-79
2022/12/12 06:40:22;;;;;;;38.53;19.23;;;-5.60;99.90;;;;;;5080303;28;20266;-78
2022/12/12 06:42:49;;;;;;;38.77;19.83;;;-5.60;99.90;;;;;;5083212;28;20262;-78
2022/12/12 06:45:16;;;;;;;38.77;19.37;;;-5.60;99.90;;;;;;5077858;28;20205;-79
2022/12/12 06:47:43;;;;;;;36.07;18.43;;;-5.60;99.90;;;;;;5086646;28;20258;-79
2022/12/12 06:50:10;;;;;;;39.37;19.50;;;-5.70;99.90;;;;;;5083102;28;20222;-79
2022/12/12 06:52:38;;;;;;;36.90;19.10;;;-5.80;99.90;;;;;;5081688;28;20226;-78
2022/12/12 06:55:06;;;;;;;37.33;19.97;;;-5.80;99.90;;;;;;5079558;28;20686;-81
2022/12/12 06:57:33;;;;;;;40.43;21.20;;;-5.70;99.90;;;;;;5082305;28;20248;-81
2022/12/12 07:00:00;;;;;;;44.07;23.93;;;-5.70;99.90;;;;;;5095914;28;20198;-81
2022/12/12 07:02:27;;;;;;;38.10;19.80;;;-5.90;99.90;;;;;;5075288;28;20262;-81
2022/12/12 07:04:55;;;;;;;38.23;19.20;;;-6.00;99.90;;;;;;5081992;28;20297;-81
2022/12/12 07:07:21;;;;;;;39.67;19.27;;;-6.00;99.90;;;;;;5075199;28;20230;-80
2022/12/12 07:09:50;;;;;;;43.77;19.97;;;-6.00;99.90;;;;;;5066912;28;20242;-80
2022/12/12 07:12:17;;;;;;;38.77;19.73;;;-5.90;99.90;;;;;;5079332;28;20212;-81
2022/12/12 07:14:43;;;;;;;39.27;19.33;;;-5.90;99.90;;;;;;5076091;28;20203;-80
2022/12/12 07:17:10;;;;;;;40.00;20.30;;;-5.80;99.90;;;;;;5078211;28;20228;-81
2022/12/12 07:19:37;;;;;;;52.43;20.53;;;-5.40;99.90;;;;;;5084202;28;20211;-81
2022/12/12 07:22:06;;;;;;;40.13;19.33;;;-5.60;99.90;;;;;;5068471;28;20201;-82
2022/12/12 07:24:38;;;;;;;40.00;21.00;;;-5.60;99.90;;;;;;5076962;28;20186;-82
2022/12/12 07:27:07;;;;;;;39.70;19.60;;;-5.60;99.90;;;;;;5071394;28;20223;-81
2022/12/12 07:29:34;;;;;;;41.73;20.77;;;-5.50;99.90;;;;;;5067040;28;20329;-81
2022/12/12 07:32:01;;;;;;;40.00;20.03;;;-5.60;99.90;;;;;;5063561;28;20217;-80
2022/12/12 07:34:29;;;;;;;40.83;20.30;;;-5.60;99.90;;;;;;5074470;28;20198;-81
2022/12/12 07:36:55;;;;;;;39.70;20.33;;;-5.40;99.90;;;;;;5065718;28;20234;-81
2022/12/12 07:39:22;;;;;;;39.30;20.13;;;-5.40;99.90;;;;;;5070884;28;20206;-81
2022/12/12 07:41:49;;;;;;;39.57;20.07;;;-5.50;99.90;;;;;;5072974;28;20209;-80
2022/12/12 07:44:17;;;;;;;38.90;19.33;;;-5.60;99.90;;;;;;5076173;28;20203;-80
2022/12/12 07:46:44;;;;;;;37.30;18.27;;;-5.60;99.90;;;;;;5073571;28;20223;-80
2022/12/12 07:49:11;;;;;;;40.93;19.17;;;-5.50;99.90;;;;;;5080056;28;20223;-79
2022/12/12 07:51:38;;;;;;;38.10;18.73;;;-5.50;99.90;;;;;;5067026;28;20226;-80
2022/12/12 07:54:05;;;;;;;37.07;18.97;;;-5.40;99.90;;;;;;5061950;28;20865;-80
2022/12/12 07:56:32;;;;;;;39.17;19.37;;;-5.40;99.90;;;;;;5066708;28;20234;-81
2022/12/12 07:58:59;;;;;;;41.20;21.23;;;-5.30;99.90;;;;;;5066019;28;20266;-81
2022/12/12 08:01:28;;;;;;;40.23;19.60;;;-5.30;99.90;;;;;;5070253;28;20674;-81
2022/12/12 08:03:55;;;;;;;40.33;20.40;;;-5.30;99.90;;;;;;5026835;28;1088417;-80
2022/12/12 08:06:23;;;;;;;40.47;20.43;;;-5.20;99.90;;;;;;5077108;28;20256;-81
2022/12/12 08:08:52;;;;;;;40.03;20.57;;;-5.10;99.90;;;;;;5066556;28;20213;-80
2022/12/12 08:11:23;;;;;;;36.93;18.53;;;-5.10;99.90;;;;;;5081860;28;20270;-79
2022/12/12 08:13:51;;;;;;;36.67;18.80;;;-5.20;99.90;;;;;;5073373;28;20267;-79
2022/12/12 08:16:20;;;;;;;39.70;18.67;;;-5.30;99.90;;;;;;5078205;28;20224;-79
2022/12/12 08:18:48;;;;;;;39.57;19.07;;;-5.20;99.90;;;;;;5072188;28;20206;-79
2022/12/12 08:21:20;;;;;;;39.97;19.67;;;-5.10;99.90;;;;;;5076731;28;20621;-80
2022/12/12 08:23:47;;;;;;;37.43;19.53;;;-4.90;99.90;;;;;;5067323;28;20202;-80
2022/12/12 08:26:16;;;;;;;35.20;20.27;;;-5.10;99.90;;;;;;5081094;28;20206;-81
2022/12/12 08:28:44;;;;;;;35.73;18.27;;;-5.00;99.90;;;;;;5073272;28;20234;-81
2022/12/12 08:31:13;;;;;;;38.17;19.57;;;-4.80;99.90;;;;;;5072804;28;20199;-81
2022/12/12 08:33:40;;;;;;;39.17;18.43;;;-4.40;99.90;;;;;;5074370;28;20217;-80
2022/12/12 08:36:17;;;;;;;34.00;17.63;;;-4.00;99.90;;;;;;5069821;28;20663;-80
2022/12/12 08:38:44;;;;;;;38.53;18.13;;;-4.30;99.90;;;;;;5070784;28;20206;-80
2022/12/12 08:41:12;;;;;;;34.63;16.77;;;-4.20;99.90;;;;;;5069372;28;20194;-81
2022/12/12 08:43:40;;;;;;;39.73;19.60;;;-4.30;99.90;;;;;;5072546;28;20205;-82
2022/12/12 08:46:09;;;;;;;38.10;18.13;;;-4.20;99.90;;;;;;5067039;28;20221;-80
2022/12/12 08:48:36;;;;;;;37.43;18.00;;;-4.10;99.90;;;;;;5064448;28;20230;-80
2022/12/12 08:51:03;;;;;;;36.87;18.03;;;-3.90;99.90;;;;;;5061502;28;20199;-80
2022/12/12 08:53:32;;;;;;;36.00;17.27;;;-3.70;99.90;;;;;;5073771;28;20206;-80
2022/12/12 08:56:01;;;;;;;36.97;16.87;;;-3.70;99.90;;;;;;5067203;28;20233;-80
2022/12/12 08:58:28;;;;;;;35.73;18.37;;;-3.90;99.90;;;;;;5068935;28;20198;-80
2022/12/12 09:00:56;;;;;;;40.60;17.83;;;-3.40;99.90;;;;;;5072416;28;20209;-80
2022/12/12 09:03:23;;;;;;;32.20;15.00;;;-3.50;99.90;;;;;;5082943;28;20210;-80
2022/12/12 09:05:50;;;;;;;36.27;17.10;;;-3.50;99.90;;;;;;5077913;28;20261;-80
2022/12/12 09:08:18;;;;;;;32.87;14.23;;;-3.70;99.90;;;;;;5089342;28;20311;-81
2022/12/12 09:13:34;;;;;;;34.37;16.90;;;-3.30;99.90;;;;;;5078283;28;20209;-80
2022/12/12 09:16:01;;;;;;;41.13;17.07;;;-3.10;99.90;;;;;;5079662;28;20222;-80
2022/12/12 09:21:11;;;;;;;35.70;15.43;;;-3.30;99.90;;;;;;5076034;28;20225;-81
2022/12/12 09:23:39;;;;;;;36.03;15.20;;;-3.10;99.90;;;;;;5071535;28;20202;-82
2022/12/12 09:26:10;;;;;;;35.40;15.93;;;-3.10;99.90;;;;;;5072678;28;20566;-82
2022/12/12 09:28:37;;;;;;;37.50;19.97;;;-2.80;99.90;;;;;;5065610;28;20206;-82
2022/12/12 09:31:05;;;;;;;35.17;17.13;;;-2.50;99.90;;;;;;5069223;28;20195;-82
2022/12/12 09:33:33;;;;;;;32.63;15.13;;;-2.20;99.90;;;;;;5066271;28;20302;-81
2022/12/12 09:36:01;;;;;;;34.03;14.80;;;-2.40;99.90;;;;;;5067119;28;20223;-81
2022/12/12 09:38:28;;;;;;;36.40;15.77;;;-2.30;99.90;;;;;;5068616;28;20206;-81
2022/12/12 09:40:58;;;;;;;35.77;18.33;;;-2.20;99.90;;;;;;5069955;28;20654;-81
2022/12/12 09:43:28;;;;;;;34.87;17.40;;;-2.50;99.90;;;;;;5078778;28;20214;-81
2022/12/12 09:45:56;;;;;;;39.50;17.70;;;-2.60;99.90;;;;;;5064272;28;20205;-81
2022/12/12 09:48:29;;;;;;;38.20;16.07;;;-2.60;99.90;;;;;;5074392;28;20223;-81
2022/12/12 09:51:08;;;;;;;38.23;18.47;;;-2.60;99.90;;;;;;5078528;28;20195;-81
2022/12/12 09:53:36;;;;;;;39.17;15.70;;;-2.40;99.90;;;;;;5070811;28;20236;-82
2022/12/12 09:56:09;;;;;;;40.70;16.30;;;-2.40;99.90;;;;;;5084189;28;20222;-81
2022/12/12 09:58:43;;;;;;;33.50;16.10;;;-2.50;99.90;;;;;;5069408;28;20211;-81
2022/12/12 10:01:27;;;;;;;32.80;14.60;;;-2.50;99.90;;;;;;5073742;28;20203;-81
2022/12/12 10:04:05;;;;;;;40.10;16.13;;;-2.20;99.90;;;;;;5071400;28;20214;-81
2022/12/12 10:06:40;;;;;;;35.60;17.07;;;-2.10;99.90;;;;;;5073084;28;20468;-81
2022/12/12 10:09:34;;;;;;;37.53;18.83;;;-2.10;99.90;;;;;;5073321;28;20193;-81
2022/12/12 10:12:03;;;;;;;37.10;15.57;;;-2.00;99.90;;;;;;5083941;28;20201;-81
2022/12/12 10:14:46;;;;;;;34.20;15.83;;;-2.00;99.90;;;;;;5069951;28;20278;-81
2022/12/12 10:17:17;;;;;;;38.77;16.00;;;-1.90;99.90;;;;;;5064341;28;20237;-81
2022/12/12 10:19:49;;;;;;;35.83;16.60;;;-1.40;99.90;;;;;;5069939;28;20205;-81
2022/12/12 10:22:23;;;;;;;38.03;16.50;;;-1.60;99.90;;;;;;5069675;28;20211;-81
2022/12/12 10:24:55;;;;;;;34.50;15.80;;;-1.60;99.90;;;;;;5076893;28;20280;-81
2022/12/12 10:27:24;;;;;;;41.73;17.73;;;-1.60;99.90;;;;;;5076171;28;20233;-81
2022/12/12 10:29:53;;;;;;;34.80;17.17;;;-1.70;99.90;;;;;;5073937;28;20215;-81
2022/12/12 10:32:37;;;;;;;36.97;18.63;;;-1.70;99.90;;;;;;5078925;28;20218;-81
2022/12/12 10:35:21;;;;;;;37.57;18.57;;;-1.70;99.90;;;;;;5075327;28;20262;-81
2022/12/12 10:38:01;;;;;;;33.40;14.50;;;-1.60;99.90;;;;;;5075693;28;20249;-81
2022/12/12 10:40:40;;;;;;;33.00;15.73;;;-1.60;99.90;;;;;;5079175;28;20235;-81
2022/12/12 10:43:13;;;;;;;37.10;15.50;;;-1.50;99.90;;;;;;5069675;28;20209;-81
2022/12/12 10:46:04;;;;;;;40.00;17.07;;;-1.40;99.90;;;;;;5070250;28;20229;-82
2022/12/12 10:48:39;;;;;;;34.00;14.93;;;-1.40;99.90;;;;;;5073808;28;20257;-82
2022/12/12 10:51:29;;;;;;;36.30;16.20;;;-1.40;99.90;;;;;;5070671;28;20203;-81
2022/12/12 10:54:05;;;;;;;38.33;16.93;;;-1.40;99.90;;;;;;5075800;28;20223;-82
2022/12/12 10:56:33;;;;;;;34.17;15.30;;;-1.40;99.90;;;;;;5078685;28;20235;-81
2022/12/12 10:59:03;;;;;;;34.33;17.93;;;-1.30;99.90;;;;;;5077590;28;20244;-81
2022/12/12 11:01:35;;;;;;;35.13;15.07;;;-1.40;99.90;;;;;;5077641;28;20271;-81
2022/12/12 11:04:09;;;;;;;33.57;14.87;;;-1.40;99.90;;;;;;5071433;28;20210;-81
2022/12/12 11:06:48;;;;;;;34.43;15.23;;;-1.40;99.90;;;;;;5080888;28;20237;-80
2022/12/12 11:09:51;;;;;;;40.17;15.70;;;-1.40;99.90;;;;;;5076727;28;20203;-80
2022/12/12 11:15:35;;;;;;;35.70;17.47;;;-1.30;99.90;;;;;;5080008;28;20720;-80
2022/12/12 11:18:04;;;;;;;35.73;16.77;;;-1.40;99.90;;;;;;5068452;28;20227;-79
2022/12/12 11:20:31;;;;;;;34.40;16.07;;;-1.30;99.90;;;;;;5073606;28;20206;-79
2022/12/12 11:22:58;;;;;;;36.30;16.03;;;-1.20;99.90;;;;;;5069978;28;20291;-80
2022/12/12 11:25:28;;;;;;;39.10;17.60;;;-1.20;99.90;;;;;;5069464;28;20211;-80
2022/12/12 11:27:59;;;;;;;37.03;17.47;;;-1.10;99.90;;;;;;5066090;28;20248;-80
2022/12/12 11:30:33;;;;;;;37.10;16.10;;;-1.10;99.90;;;;;;5068632;28;20245;-80
2022/12/12 11:33:07;;;;;;;35.70;16.20;;;-1.00;99.90;;;;;;5069471;28;20214;-80
2022/12/12 11:35:36;;;;;;;36.43;16.70;;;-1.00;99.90;;;;;;5065085;28;20274;-79
2022/12/12 11:38:06;;;;;;;37.40;17.67;;;-1.00;99.90;;;;;;5073722;28;20226;-80
2022/12/12 11:40:36;;;;;;;36.10;16.87;;;-0.90;99.90;;;;;;5073782;28;20209;-79
2022/12/12 11:43:18;;;;;;;42.57;18.57;;;-0.90;99.90;;;;;;5066485;28;20203;-80
2022/12/12 11:45:58;;;;;;;36.20;17.03;;;-0.90;99.90;;;;;;5070104;28;20207;-79
2022/12/12 11:48:36;;;;;;;38.07;18.07;;;-0.90;99.90;;;;;;5074518;28;20210;-79
2022/12/12 11:51:03;;;;;;;36.30;17.97;;;-0.90;99.90;;;;;;5077392;28;20257;-79
2022/12/12 11:53:33;;;;;;;37.37;16.73;;;-0.80;99.90;;;;;;5077910;28;20226;-79
2022/12/12 11:56:21;;;;;;;36.17;18.90;;;-0.60;99.90;;;;;;5082229;28;20257;-78
2022/12/12 11:58:58;;;;;;;40.27;18.83;;;-0.30;99.90;;;;;;5085520;28;20202;-78
2022/12/12 12:01:32;;;;;;;43.17;18.07;;;0.10;99.90;;;;;;5057122;28;20191;-79
2022/12/12 12:04:25;;;;;;;35.97;17.87;;;0.40;99.90;;;;;;5060837;28;20214;-80
2022/12/12 12:07:05;;;;;;;38.07;16.50;;;0.30;99.90;;;;;;5069879;28;20222;-80
2022/12/12 12:09:44;;;;;;;37.63;15.37;;;0.30;99.90;;;;;;5076798;28;20206;-80
2022/12/12 12:12:24;;;;;;;36.63;16.63;;;0.10;99.90;;;;;;5073708;28;20207;-81
2022/12/12 12:15:30;;;;;;;35.67;17.13;;;0.20;99.90;;;;;;5076494;28;20212;-80
2022/12/12 12:18:28;;;;;;;38.97;19.00;;;0.10;99.90;;;;;;5017133;28;20243;-80
2022/12/12 12:21:18;;;;;;;35.60;16.73;;;-0.10;99.90;;;;;;5081701;28;20206;-81
2022/12/12 12:23:52;;;;;;;36.23;16.40;;;0.20;99.90;;;;;;5074490;28;20686;-82
2022/12/12 12:26:28;;;;;;;33.63;15.97;;;0.40;99.90;;;;;;5072344;28;20204;-81
2022/12/12 12:29:21;;;;;;;39.77;17.57;;;0.30;99.90;;;;;;5077489;28;20266;-82
2022/12/12 12:31:58;;;;;;;33.40;15.93;;;0.50;99.90;;;;;;5071527;28;20207;-81
2022/12/12 12:34:31;;;;;;;30.27;14.67;;;0.60;99.90;;;;;;5068610;28;20207;-79
2022/12/12 12:37:13;;;;;;;32.30;16.07;;;0.30;99.90;;;;;;5062139;28;20219;-80
2022/12/12 12:39:58;;;;;;;35.87;16.77;;;0.10;99.90;;;;;;5078674;28;20214;-80
2022/12/12 12:42:40;;;;;;;31.90;16.40;;;1.30;99.90;;;;;;5074162;28;20274;-80
2022/12/12 12:45:17;;;;;;;30.53;15.53;;;1.50;99.90;;;;;;5072840;28;20209;-81
2022/12/12 12:47:49;;;;;;;31.87;15.63;;;1.80;99.90;;;;;;5074915;28;20222;-81
2022/12/12 12:50:20;;;;;;;30.77;15.30;;;1.40;99.90;;;;;;5081026;28;20206;-81
2022/12/12 12:52:55;;;;;;;36.07;17.53;;;1.10;99.90;;;;;;5077016;28;20299;-81
2022/12/12 12:55:26;;;;;;;35.33;18.03;;;1.00;99.90;;;;;;5084778;28;20206;-81
2022/12/12 12:57:54;;;;;;;33.63;15.83;;;0.60;99.90;;;;;;5078319;28;20227;-81
2022/12/12 13:00:23;;;;;;;31.30;15.23;;;0.90;99.90;;;;;;5080364;28;20209;-81
2022/12/12 13:02:56;;;;;;;31.83;15.13;;;1.00;99.90;;;;;;5083791;28;20282;-81
2022/12/12 13:05:30;;;;;;;33.07;15.53;;;1.20;99.90;;;;;;5077297;28;20210;-81
2022/12/12 13:08:05;;;;;;;30.20;14.23;;;1.40;99.90;;;;;;5073578;28;20249;-81
2022/12/12 13:10:33;;;;;;;35.00;15.93;;;0.90;99.90;;;;;;5077332;28;20212;-82
2022/12/12 13:13:06;;;;;;;31.73;14.63;;;1.60;99.90;;;;;;5074857;28;20198;-81